Time;durP1;ratioP1;P1;durP2;ratioP2;P2;SDS_P1;SDS_P2;PMS_P1;PMS_P2;Temp;Humidity;BMP_temperature;BMP_pressure;BME280_temperature;BME280_humidity;BME280_pressure;Samples;Min_cycle;Max_cycle;Signal;HPM_P1;HPM_P2
2023/08/26 00:00:07;;;;;;;13.82;10.07;;;22.70;66.20;;;;;;5031701;28;20415;-48
2023/08/26 00:02:36;;;;;;;10.55;9.13;;;22.60;66.30;;;;;;5029522;28;20258;-46
2023/08/26 00:05:03;;;;;;;11.30;10.10;;;22.60;66.40;;;;;;5031690;28;20112;-48
2023/08/26 00:07:31;;;;;;;12.82;10.13;;;22.60;66.40;;;;;;5030024;28;20041;-47
2023/08/26 00:10:04;;;;;;;11.35;9.93;;;22.50;66.40;;;;;;5031595;28;20044;-46
2023/08/26 00:12:31;;;;;;;12.70;9.70;;;22.60;66.60;;;;;;5031412;28;20088;-47
2023/08/26 00:14:58;;;;;;;13.27;11.23;;;22.50;66.60;;;;;;5031201;28;20037;-46
2023/08/26 00:17:27;;;;;;;13.68;10.98;;;22.50;66.50;;;;;;5030094;28;20041;-46
2023/08/26 00:19:56;;;;;;;12.43;9.50;;;22.50;66.60;;;;;;5032272;28;20044;-50
2023/08/26 00:22:22;;;;;;;13.80;9.75;;;22.50;66.60;;;;;;5027170;28;20171;-46
2023/08/26 00:24:51;;;;;;;13.30;10.27;;;22.50;66.40;;;;;;5030781;28;20546;-46
2023/08/26 00:27:18;;;;;;;12.13;9.85;;;22.50;66.30;;;;;;5030764;28;20072;-47
2023/08/26 00:29:45;;;;;;;12.23;9.57;;;22.40;66.00;;;;;;5030948;28;20040;-48
2023/08/26 00:32:18;;;;;;;12.23;10.07;;;22.40;65.60;;;;;;5029764;28;20038;-49
2023/08/26 00:34:52;;;;;;;10.13;9.00;;;22.30;65.30;;;;;;5031300;28;20466;-47
2023/08/26 00:37:18;;;;;;;9.20;8.00;;;22.30;65.10;;;;;;5028102;28;20056;-48
2023/08/26 00:39:49;;;;;;;12.02;7.45;;;22.20;64.40;;;;;;5011831;28;20042;-45
2023/08/26 00:42:18;;;;;;;;;;;22.10;63.60;;;;;;5027534;28;20049;-44
2023/08/26 00:44:47;;;;;;;8.05;5.50;;;22.10;64.00;;;;;;5025599;28;20457;-45
2023/08/26 00:47:16;;;;;;;5.22;3.83;;;22.00;62.60;;;;;;5011282;28;20424;-45
2023/08/26 00:49:43;;;;;;;4.75;3.38;;;21.90;61.60;;;;;;5010048;28;20030;-50
2023/08/26 00:52:10;;;;;;;6.55;4.13;;;21.70;61.10;;;;;;5012811;28;20072;-49
2023/08/26 00:54:41;;;;;;;3.33;2.67;;;21.60;60.80;;;;;;5030058;28;20052;-45
2023/08/26 00:57:16;;;;;;;4.38;3.42;;;21.50;60.70;;;;;;5009364;28;20073;-50
2023/08/26 00:59:45;;;;;;;3.15;2.85;;;21.40;60.90;;;;;;5014042;28;20127;-45
2023/08/26 01:02:18;;;;;;;7.47;3.40;;;21.20;60.50;;;;;;5018756;28;20045;-47
2023/08/26 01:04:44;;;;;;;5.72;3.03;;;21.10;60.50;;;;;;5012400;28;20049;-46
2023/08/26 01:07:12;;;;;;;4.05;2.70;;;21.00;60.40;;;;;;5029936;28;20567;-49
2023/08/26 01:09:43;;;;;;;3.83;2.78;;;20.90;60.50;;;;;;5020247;28;20099;-44
2023/08/26 01:12:35;;;;;;;3.15;2.22;;;20.80;60.60;;;;;;5012852;28;20072;-48
2023/08/26 01:15:12;;;;;;;5.93;2.97;;;20.70;60.10;;;;;;5012582;28;20050;-44
2023/08/26 01:17:41;;;;;;;2.55;1.98;;;20.60;60.50;;;;;;5011715;28;20053;-45
2023/08/26 01:20:16;;;;;;;1.88;1.77;;;20.50;60.70;;;;;;5013236;28;20095;-45
2023/08/26 01:22:45;;;;;;;2.35;1.95;;;20.40;60.40;;;;;;5011744;28;20048;-49
2023/08/26 01:25:16;;;;;;;5.07;2.50;;;20.40;60.40;;;;;;5012030;28;20484;-45
2023/08/26 01:27:48;;;;;;;2.78;1.55;;;20.30;60.50;;;;;;5029319;28;20041;-48
2023/08/26 01:30:18;;;;;;;1.73;1.63;;;20.20;60.60;;;;;;5029717;28;20171;-47
2023/08/26 01:33:18;;;;;;;3.95;1.55;;;20.10;60.50;;;;;;5011165;28;20065;-45
2023/08/26 01:35:49;;;;;;;1.33;1.23;;;20.10;60.40;;;;;;5025485;28;20078;-46
2023/08/26 01:38:20;;;;;;;2.60;1.70;;;20.00;60.60;;;;;;5025406;28;20099;-47
2023/08/26 01:40:53;;;;;;;4.38;1.20;;;19.90;61.40;;;;;;5013781;28;20154;-44
2023/08/26 01:43:23;;;;;;;2.67;1.52;;;19.90;60.80;;;;;;5026846;28;20128;-44
2023/08/26 01:45:55;;;;;;;5.13;1.90;;;19.80;61.00;;;;;;5028639;28;20037;-46
2023/08/26 01:48:24;;;;;;;2.35;1.20;;;19.70;61.00;;;;;;5009657;28;20103;-48
2023/08/26 01:50:59;;;;;;;3.45;2.13;;;19.70;61.20;;;;;;5012120;28;20091;-47
2023/08/26 01:53:27;;;;;;;2.92;1.58;;;19.70;61.30;;;;;;5011780;28;20052;-48
2023/08/26 01:55:54;;;;;;;1.55;1.10;;;19.60;62.00;;;;;;5010323;28;20050;-46
2023/08/26 01:58:22;;;;;;;2.28;1.95;;;19.60;61.40;;;;;;5013323;28;20456;-46
2023/08/26 02:00:51;;;;;;;3.97;1.60;;;19.50;61.60;;;;;;5009932;28;20041;-48
2023/08/26 02:03:18;;;;;;;3.67;1.75;;;19.50;61.60;;;;;;5011143;28;20053;-47
2023/08/26 02:05:47;;;;;;;2.85;1.50;;;19.40;61.80;;;;;;5010272;28;20053;-48
2023/08/26 02:08:22;;;;;;;2.45;1.60;;;19.40;61.90;;;;;;5025717;28;20038;-48
2023/08/26 02:10:56;;;;;;;3.47;1.70;;;19.30;61.90;;;;;;5026500;28;20044;-46
2023/08/26 02:13:24;;;;;;;2.47;1.75;;;19.30;62.00;;;;;;5029198;28;20033;-45
2023/08/26 02:15:52;;;;;;;3.75;1.90;;;19.20;62.20;;;;;;5011165;28;20041;-48
2023/08/26 02:18:18;;;;;;;4.25;1.70;;;19.20;62.30;;;;;;5011492;28;20045;-48
2023/08/26 02:20:48;;;;;;;3.38;1.73;;;19.20;62.50;;;;;;5009079;28;20541;-45
2023/08/26 02:23:15;;;;;;;2.67;2.05;;;19.10;62.50;;;;;;5027480;28;20042;-45
2023/08/26 02:25:47;;;;;;;2.75;1.83;;;19.10;62.60;;;;;;5029234;28;20044;-48
2023/08/26 02:28:13;;;;;;;2.88;2.00;;;19.10;62.80;;;;;;5010181;28;20535;-44
2023/08/26 02:30:40;;;;;;;3.67;2.40;;;19.00;62.80;;;;;;5026472;28;20510;-48
2023/08/26 02:33:10;;;;;;;4.82;2.97;;;19.00;62.80;;;;;;5011155;28;20041;-47
2023/08/26 02:35:44;;;;;;;2.03;1.80;;;18.90;62.90;;;;;;5029044;28;20403;-44
2023/08/26 02:38:11;;;;;;;4.15;1.85;;;18.90;63.00;;;;;;5009085;28;20041;-46
2023/08/26 02:40:37;;;;;;;4.82;1.70;;;18.90;63.00;;;;;;5026808;28;20041;-45
2023/08/26 02:43:08;;;;;;;4.57;2.70;;;18.80;63.20;;;;;;5027485;28;20133;-49
2023/08/26 02:45:37;;;;;;;5.00;2.03;;;18.80;63.30;;;;;;5028287;28;20041;-45
2023/08/26 02:48:05;;;;;;;4.05;2.10;;;18.80;63.40;;;;;;5010158;28;20396;-46
2023/08/26 02:50:37;;;;;;;3.78;2.03;;;18.70;63.40;;;;;;5011961;28;20068;-44
2023/08/26 02:53:05;;;;;;;2.25;1.83;;;18.70;63.50;;;;;;5010513;28;20582;-47
2023/08/26 02:55:32;;;;;;;1.67;1.58;;;18.70;63.50;;;;;;5010498;28;20458;-47
2023/08/26 02:57:58;;;;;;;4.88;1.92;;;18.70;63.80;;;;;;5027793;28;20061;-49
2023/08/26 03:00:27;;;;;;;5.30;2.08;;;18.70;63.70;;;;;;5026410;28;20046;-43
2023/08/26 03:02:54;;;;;;;2.85;1.70;;;18.60;63.70;;;;;;5024404;28;20438;-47
2023/08/26 03:05:31;;;;;;;4.40;2.83;;;18.60;63.70;;;;;;5009410;28;20439;-44
2023/08/26 03:08:08;;;;;;;2.47;2.00;;;18.60;63.70;;;;;;5027681;28;20033;-47
2023/08/26 03:10:34;;;;;;;4.07;2.10;;;18.60;63.70;;;;;;5010819;28;20046;-44
2023/08/26 03:13:01;;;;;;;2.53;1.92;;;18.60;63.60;;;;;;5028948;28;20385;-46
2023/08/26 03:15:29;;;;;;;4.55;2.47;;;18.60;63.80;;;;;;5012403;28;20107;-44
2023/08/26 03:17:56;;;;;;;4.35;1.98;;;18.60;63.80;;;;;;5031916;28;20066;-49
2023/08/26 03:20:24;;;;;;;4.72;3.45;;;18.60;63.80;;;;;;5015925;28;20042;-48
2023/08/26 03:22:50;;;;;;;4.50;2.03;;;18.60;63.90;;;;;;5014266;28;20388;-47
2023/08/26 03:25:17;;;;;;;2.72;1.73;;;18.60;64.00;;;;;;5013266;28;20447;-49
2023/08/26 03:27:44;;;;;;;6.78;2.13;;;18.60;64.10;;;;;;5014079;28;20052;-48
2023/08/26 03:30:11;;;;;;;3.65;1.88;;;18.60;64.00;;;;;;5014795;28;20551;-49
2023/08/26 03:32:38;;;;;;;4.53;2.00;;;18.60;64.10;;;;;;5019516;28;20140;-44
2023/08/26 03:35:06;;;;;;;5.05;2.30;;;18.50;64.10;;;;;;5015160;28;20037;-46
2023/08/26 03:37:35;;;;;;;3.85;1.70;;;18.50;64.10;;;;;;5013140;28;20042;-44
2023/08/26 03:40:06;;;;;;;4.53;2.35;;;18.50;64.10;;;;;;5013036;28;20499;-45
2023/08/26 03:42:33;;;;;;;4.00;1.90;;;18.50;64.20;;;;;;5012817;28;20045;-44
2023/08/26 03:45:00;;;;;;;4.38;2.55;;;18.50;64.30;;;;;;5031287;28;20048;-48
2023/08/26 03:47:33;;;;;;;3.30;1.80;;;18.50;64.40;;;;;;5012059;28;20107;-44
2023/08/26 03:50:04;;;;;;;4.00;1.92;;;18.40;64.50;;;;;;5032373;28;20045;-47
2023/08/26 03:52:31;;;;;;;6.72;1.70;;;18.40;64.40;;;;;;5031046;28;20053;-46
2023/08/26 03:54:59;;;;;;;3.75;1.80;;;18.40;64.50;;;;;;5012759;28;20061;-48
2023/08/26 03:57:33;;;;;;;4.53;2.13;;;18.40;64.60;;;;;;5030336;28;20049;-46
2023/08/26 04:00:00;;;;;;;4.72;1.80;;;18.40;64.80;;;;;;5030898;28;20061;-44
2023/08/26 04:02:27;;;;;;;4.28;2.10;;;18.30;64.70;;;;;;5030323;28;20037;-48
2023/08/26 04:04:57;;;;;;;3.90;2.05;;;18.30;64.70;;;;;;5012615;28;20072;-44
2023/08/26 04:07:24;;;;;;;2.78;2.08;;;18.30;64.80;;;;;;5028536;28;20040;-49
2023/08/26 04:09:53;;;;;;;5.82;2.10;;;18.30;64.80;;;;;;5012723;28;20042;-47
2023/08/26 04:12:26;;;;;;;3.55;2.05;;;18.20;64.80;;;;;;5013218;28;20543;-49
2023/08/26 04:14:55;;;;;;;7.68;2.20;;;18.20;64.70;;;;;;5027928;28;20042;-46
2023/08/26 04:17:26;;;;;;;3.33;1.90;;;18.30;64.80;;;;;;5027971;28;20415;-47
2023/08/26 04:19:58;;;;;;;4.13;1.80;;;18.20;64.80;;;;;;5031766;28;20419;-48
2023/08/26 04:22:28;;;;;;;5.07;1.85;;;18.20;64.80;;;;;;5013408;28;20048;-45
2023/08/26 04:24:58;;;;;;;5.82;1.73;;;18.10;64.90;;;;;;5012230;28;20042;-45
2023/08/26 04:27:25;;;;;;;4.53;1.83;;;18.10;64.80;;;;;;5026850;28;20091;-48
2023/08/26 04:29:54;;;;;;;3.60;1.60;;;18.10;64.90;;;;;;5013107;28;20046;-46
2023/08/26 04:32:24;;;;;;;2.85;1.70;;;18.10;64.90;;;;;;5032165;28;20041;-48
2023/08/26 04:34:51;;;;;;;3.45;1.83;;;18.10;65.00;;;;;;5012131;28;20058;-46
2023/08/26 04:37:22;;;;;;;5.63;1.92;;;18.00;64.90;;;;;;5030463;28;20046;-49
2023/08/26 04:39:50;;;;;;;4.15;1.88;;;18.00;65.00;;;;;;5018592;28;20049;-45
2023/08/26 04:42:18;;;;;;;3.53;2.35;;;18.00;65.60;;;;;;5013555;28;20419;-48
2023/08/26 04:44:45;;;;;;;2.00;1.40;;;18.00;64.90;;;;;;5010706;28;20058;-48
2023/08/26 04:47:13;;;;;;;6.22;2.22;;;18.00;65.00;;;;;;5013056;28;20092;-44
2023/08/26 04:49:41;;;;;;;2.78;1.73;;;18.00;64.90;;;;;;5030671;28;20072;-46
2023/08/26 04:52:10;;;;;;;4.30;1.40;;;18.00;65.00;;;;;;5031151;28;20068;-45
2023/08/26 04:54:39;;;;;;;3.45;1.60;;;18.00;65.20;;;;;;5030374;28;20454;-48
2023/08/26 04:57:08;;;;;;;2.08;1.40;;;18.00;65.30;;;;;;5010638;28;20409;-45
2023/08/26 04:59:37;;;;;;;2.17;1.40;;;18.00;65.20;;;;;;5013566;28;20141;-44
2023/08/26 05:02:07;;;;;;;4.65;2.03;;;18.00;65.20;;;;;;5029480;28;20492;-45
2023/08/26 05:04:36;;;;;;;4.80;1.30;;;18.00;65.10;;;;;;5013535;28;20104;-45
2023/08/26 05:07:07;;;;;;;2.85;1.20;;;18.00;65.10;;;;;;5012438;28;20041;-45
2023/08/26 05:09:34;;;;;;;4.87;1.30;;;18.00;65.10;;;;;;5009914;28;20038;-48
2023/08/26 05:12:01;;;;;;;3.80;2.00;;;18.00;65.00;;;;;;5030502;28;20108;-47
2023/08/26 05:14:30;;;;;;;2.95;1.30;;;18.00;65.10;;;;;;5028478;28;20132;-49
2023/08/26 05:16:57;;;;;;;1.70;1.17;;;18.00;65.00;;;;;;5029079;28;20499;-47
2023/08/26 05:19:33;;;;;;;1.33;1.20;;;18.00;65.00;;;;;;5031659;28;20037;-47
2023/08/26 05:22:01;;;;;;;3.13;1.10;;;18.10;65.10;;;;;;5030039;28;20045;-47
2023/08/26 05:24:30;;;;;;;2.78;1.30;;;18.10;65.10;;;;;;5011482;28;20530;-48
2023/08/26 05:26:57;;;;;;;2.00;0.90;;;18.20;64.90;;;;;;5028630;28;20045;-48
2023/08/26 05:29:28;;;;;;;1.00;0.90;;;18.20;64.80;;;;;;5012680;28;20049;-47
2023/08/26 05:31:56;;;;;;;2.90;0.90;;;18.20;64.80;;;;;;5013858;28;20042;-48
2023/08/26 05:34:26;;;;;;;1.88;0.80;;;18.20;64.50;;;;;;5012380;28;20543;-49
2023/08/26 05:36:58;;;;;;;3.63;1.23;;;18.20;64.30;;;;;;5010084;28;20100;-49
2023/08/26 05:39:24;;;;;;;1.85;1.45;;;18.30;64.30;;;;;;5011402;28;20127;-47
2023/08/26 05:41:52;;;;;;;4.35;1.30;;;18.20;64.30;;;;;;5029811;28;20103;-50
2023/08/26 05:44:19;;;;;;;3.05;1.40;;;18.20;64.20;;;;;;5012330;28;20045;-50
2023/08/26 05:46:46;;;;;;;2.15;1.23;;;18.20;64.10;;;;;;5009781;28;20100;-47
2023/08/26 05:49:15;;;;;;;2.13;1.00;;;18.20;64.00;;;;;;5029562;28;20041;-48
2023/08/26 05:51:41;;;;;;;1.42;1.00;;;18.20;64.10;;;;;;5012676;28;20198;-48
2023/08/26 05:54:14;;;;;;;1.52;1.20;;;18.20;64.70;;;;;;5010208;28;20750;-48
2023/08/26 05:56:41;;;;;;;4.68;2.05;;;18.20;64.00;;;;;;5011141;28;20034;-48
2023/08/26 05:59:12;;;;;;;1.50;0.82;;;18.20;64.00;;;;;;5026702;28;20128;-47
2023/08/26 06:01:39;;;;;;;1.58;0.85;;;18.20;63.90;;;;;;5028709;28;20132;-47
2023/08/26 06:04:11;;;;;;;5.07;1.38;;;18.20;64.00;;;;;;5028837;28;20037;-47
2023/08/26 06:06:38;;;;;;;1.85;0.73;;;18.20;64.20;;;;;;5012006;28;20038;-47
2023/08/26 06:09:09;;;;;;;3.90;0.88;;;18.20;64.00;;;;;;5009706;28;20037;-47
2023/08/26 06:11:35;;;;;;;4.97;0.98;;;18.30;64.20;;;;;;5023604;28;20053;-47
2023/08/26 06:14:07;;;;;;;2.42;0.95;;;18.20;64.30;;;;;;5026970;28;20051;-48
2023/08/26 06:16:35;;;;;;;3.35;0.80;;;18.30;64.30;;;;;;5024231;28;20523;-47
2023/08/26 06:19:02;;;;;;;2.30;0.65;;;18.30;64.30;;;;;;5026963;28;20119;-50
2023/08/26 06:21:33;;;;;;;2.63;1.10;;;18.30;64.00;;;;;;5011196;28;20458;-47
2023/08/26 06:24:00;;;;;;;1.42;1.10;;;18.30;64.10;;;;;;5009901;28;20045;-51
2023/08/26 06:26:29;;;;;;;1.35;0.90;;;18.40;64.00;;;;;;5011112;28;20100;-49
2023/08/26 06:28:58;;;;;;;2.88;1.23;;;18.40;64.00;;;;;;5005227;28;20048;-48
2023/08/26 06:31:29;;;;;;;3.30;1.02;;;18.40;63.90;;;;;;4997810;28;20712;-53
2023/08/26 06:33:56;;;;;;;3.30;1.27;;;18.40;63.80;;;;;;5005469;28;20056;-53
2023/08/26 06:36:23;;;;;;;2.38;0.82;;;18.40;63.60;;;;;;5026085;28;20045;-51
2023/08/26 06:38:51;;;;;;;2.03;1.40;;;18.40;63.60;;;;;;5025090;28;20034;-52
2023/08/26 06:41:17;;;;;;;1.80;1.10;;;18.50;63.80;;;;;;5014701;28;20045;-52
2023/08/26 06:43:45;;;;;;;3.13;1.00;;;18.50;63.60;;;;;;5010207;28;20072;-52
2023/08/26 06:46:19;;;;;;;0.82;0.80;;;18.50;63.50;;;;;;5023743;28;20050;-53
2023/08/26 06:48:46;;;;;;;2.20;1.00;;;18.50;63.30;;;;;;5024516;28;20045;-51
2023/08/26 06:51:13;;;;;;;2.78;1.30;;;18.50;63.40;;;;;;5024963;28;20041;-52
2023/08/26 06:53:40;;;;;;;1.20;0.85;;;18.60;63.50;;;;;;5011325;28;20076;-52
2023/08/26 06:56:06;;;;;;;2.05;0.90;;;18.60;63.40;;;;;;5008724;28;20029;-52
2023/08/26 06:58:33;;;;;;;2.25;0.90;;;18.60;63.50;;;;;;5027506;28;20061;-52
2023/08/26 07:01:00;;;;;;;3.92;1.40;;;18.60;63.40;;;;;;5027768;28;20076;-52
2023/08/26 07:03:27;;;;;;;2.30;1.58;;;18.70;63.40;;;;;;5028875;28;20040;-52
2023/08/26 07:05:54;;;;;;;2.70;0.70;;;18.70;63.10;;;;;;5028212;28;20698;-51
2023/08/26 07:08:20;;;;;;;2.20;0.60;;;18.70;63.00;;;;;;5025527;28;20050;-50
2023/08/26 07:10:50;;;;;;;6.20;1.67;;;18.80;63.00;;;;;;5031070;28;20056;-50
2023/08/26 07:13:16;;;;;;;3.08;0.77;;;18.80;63.00;;;;;;5020503;28;20033;-51
2023/08/26 07:15:43;;;;;;;5.82;1.60;;;18.80;63.20;;;;;;5025622;28;20042;-50
2023/08/26 07:18:10;;;;;;;2.30;1.42;;;18.90;63.20;;;;;;5028270;28;20123;-52
2023/08/26 07:20:38;;;;;;;2.95;1.17;;;18.90;63.10;;;;;;5029903;28;20128;-52
2023/08/26 07:23:04;;;;;;;1.33;0.98;;;18.90;63.30;;;;;;5025250;28;20130;-51
2023/08/26 07:25:31;;;;;;;2.40;1.27;;;19.00;63.00;;;;;;5022433;28;20282;-50
2023/08/26 07:27:58;;;;;;;2.08;1.20;;;19.00;63.00;;;;;;5027532;28;20133;-51
2023/08/26 07:30:26;;;;;;;1.30;1.02;;;19.10;62.70;;;;;;5026194;28;20431;-53
2023/08/26 07:32:53;;;;;;;2.20;0.75;;;19.10;62.70;;;;;;5034138;28;20057;-50
2023/08/26 07:35:20;;;;;;;1.55;0.77;;;19.20;62.60;;;;;;5028582;28;20117;-46
2023/08/26 07:37:47;;;;;;;2.95;1.10;;;19.20;62.70;;;;;;5028065;28;20041;-48
2023/08/26 07:40:14;;;;;;;1.98;0.73;;;19.20;62.80;;;;;;5028328;28;20128;-47
2023/08/26 07:42:43;;;;;;;2.22;0.82;;;19.20;62.60;;;;;;5028178;28;20041;-50
2023/08/26 07:45:10;;;;;;;2.25;0.70;;;19.30;62.50;;;;;;5027085;28;20499;-50
2023/08/26 07:47:43;;;;;;;1.35;0.95;;;19.30;62.20;;;;;;5028099;28;20072;-48
2023/08/26 07:50:13;;;;;;;2.25;0.80;;;19.30;61.90;;;;;;5025400;28;20052;-48
2023/08/26 07:52:42;;;;;;;1.75;0.95;;;19.40;61.90;;;;;;5028165;28;20103;-47
2023/08/26 07:55:11;;;;;;;2.05;0.77;;;19.40;61.80;;;;;;5026883;28;20587;-49
2023/08/26 07:57:40;;;;;;;2.58;1.30;;;19.40;61.60;;;;;;5027600;28;20096;-49
2023/08/26 08:00:10;;;;;;;1.13;0.80;;;19.50;61.70;;;;;;5028683;28;20474;-47
2023/08/26 08:02:41;;;;;;;1.73;0.93;;;19.50;61.80;;;;;;5032003;28;20076;-46
2023/08/26 08:05:08;;;;;;;1.70;0.98;;;19.50;61.70;;;;;;5031206;28;20075;-47
2023/08/26 08:07:37;;;;;;;1.23;0.80;;;19.60;61.70;;;;;;5032295;28;20056;-51
2023/08/26 08:10:04;;;;;;;2.28;1.08;;;19.60;61.70;;;;;;5031058;28;20073;-47
2023/08/26 08:12:35;;;;;;;4.20;1.10;;;19.60;61.40;;;;;;5031898;28;20076;-47
2023/08/26 08:15:06;;;;;;;1.42;0.80;;;19.60;61.70;;;;;;5031075;28;20046;-50
2023/08/26 08:17:33;;;;;;;2.15;0.80;;;19.70;61.30;;;;;;5030970;28;20049;-47
2023/08/26 08:20:03;;;;;;;1.85;1.20;;;19.70;61.00;;;;;;5031130;28;20045;-48
2023/08/26 08:22:39;;;;;;;1.52;0.90;;;19.80;61.00;;;;;;5032367;28;20101;-48
2023/08/26 08:25:07;;;;;;;4.03;1.00;;;19.80;60.70;;;;;;5030736;28;20504;-51
2023/08/26 08:27:37;;;;;;;0.82;0.82;;;19.80;61.00;;;;;;5032276;28;20042;-47
2023/08/26 08:30:07;;;;;;;2.55;1.05;;;19.80;61.10;;;;;;5030476;28;20042;-48
2023/08/26 08:32:38;;;;;;;1.98;0.90;;;19.90;61.50;;;;;;5030583;28;20037;-48
2023/08/26 08:35:11;;;;;;;4.15;1.02;;;19.90;61.10;;;;;;5030788;28;20036;-49
2023/08/26 08:37:38;;;;;;;2.55;1.20;;;20.00;61.30;;;;;;5032223;28;20033;-49
2023/08/26 08:40:07;;;;;;;2.63;0.75;;;20.00;61.50;;;;;;5031552;28;20526;-47
2023/08/26 08:42:44;;;;;;;3.22;0.80;;;20.10;61.10;;;;;;5030428;28;20045;-48
2023/08/26 08:45:15;;;;;;;4.30;0.90;;;20.10;60.30;;;;;;5030717;28;20042;-46
2023/08/26 08:47:43;;;;;;;3.50;1.17;;;20.20;60.20;;;;;;5031940;28;20048;-47
2023/08/26 08:50:11;;;;;;;2.85;0.82;;;20.20;59.90;;;;;;5030866;28;20083;-47
2023/08/26 08:52:44;;;;;;;0.80;0.80;;;20.30;60.30;;;;;;5031601;28;20099;-49
2023/08/26 08:55:13;;;;;;;2.70;0.90;;;20.30;60.20;;;;;;5031132;28;20045;-48
2023/08/26 08:57:44;;;;;;;1.15;0.77;;;20.40;59.90;;;;;;5031853;28;20130;-48
2023/08/26 09:00:12;;;;;;;2.15;0.77;;;20.40;59.50;;;;;;5029514;28;20076;-48
2023/08/26 09:02:40;;;;;;;2.88;0.95;;;20.50;59.60;;;;;;5030913;28;20100;-49
2023/08/26 09:05:13;;;;;;;2.28;1.00;;;20.60;59.40;;;;;;5030093;28;20041;-49
2023/08/26 09:07:41;;;;;;;2.47;0.73;;;20.60;59.60;;;;;;5029790;28;20137;-48
2023/08/26 09:10:12;;;;;;;1.30;0.90;;;20.70;59.50;;;;;;5030188;28;20048;-49
2023/08/26 09:12:40;;;;;;;2.70;1.02;;;20.70;59.40;;;;;;5030006;28;20041;-51
2023/08/26 09:15:11;;;;;;;2.03;1.73;;;20.80;61.20;;;;;;5045757;23;20045;-51
2023/08/26 09:17:51;;;;;;;1.10;1.00;;;20.80;59.70;;;;;;5025578;28;20037;-51
2023/08/26 09:20:18;;;;;;;3.67;1.30;;;20.90;59.80;;;;;;5017449;28;20497;-46
2023/08/26 09:22:45;;;;;;;2.17;0.88;;;21.00;59.20;;;;;;5015111;28;20848;-51
2023/08/26 09:25:14;;;;;;;2.17;0.57;;;21.00;58.90;;;;;;5018447;28;20054;-50
2023/08/26 09:27:42;;;;;;;2.00;0.82;;;21.10;59.20;;;;;;5017347;28;20682;-47
2023/08/26 09:30:12;;;;;;;1.48;0.80;;;21.10;58.90;;;;;;5012757;28;20069;-46
2023/08/26 09:32:41;;;;;;;1.70;0.70;;;21.20;58.70;;;;;;5024025;28;20471;-46
2023/08/26 09:35:13;;;;;;;2.97;0.70;;;21.20;58.60;;;;;;5024766;28;20120;-48
2023/08/26 09:37:48;;;;;;;0.85;0.85;;;21.30;58.80;;;;;;5021851;28;20042;-47
2023/08/26 09:40:16;;;;;;;1.05;0.63;;;21.30;58.20;;;;;;5011489;28;20096;-47
2023/08/26 09:42:44;;;;;;;1.98;0.70;;;21.30;57.70;;;;;;5027014;28;20037;-46
2023/08/26 09:45:14;;;;;;;2.55;0.70;;;21.40;57.40;;;;;;5022243;28;20045;-46
2023/08/26 09:47:41;;;;;;;2.67;1.00;;;21.40;57.50;;;;;;5022352;28;20041;-47
2023/08/26 09:50:08;;;;;;;2.78;1.08;;;21.50;57.20;;;;;;5024731;28;20060;-47
2023/08/26 09:52:52;;;;;;;1.38;0.60;;;21.50;57.20;;;;;;5026449;28;20033;-47
2023/08/26 09:55:22;;;;;;;1.73;0.82;;;21.50;56.80;;;;;;5016668;28;20077;-45
2023/08/26 09:57:52;;;;;;;1.63;0.87;;;21.60;56.90;;;;;;5026256;28;20037;-50
2023/08/26 10:00:23;;;;;;;0.85;0.63;;;21.60;56.90;;;;;;5011125;28;20076;-50
2023/08/26 10:02:51;;;;;;;1.17;0.52;;;21.60;57.30;;;;;;5023302;28;20073;-49
2023/08/26 10:05:24;;;;;;;1.35;1.02;;;21.60;58.10;;;;;;5006091;28;20053;-47
2023/08/26 10:07:52;;;;;;;1.17;0.50;;;21.70;57.80;;;;;;5013184;28;20041;-47
2023/08/26 10:10:28;;;;;;;1.05;0.93;;;21.70;57.00;;;;;;5017243;28;20567;-47
2023/08/26 10:13:01;;;;;;;2.85;1.13;;;21.80;57.80;;;;;;5016438;28;20049;-47
2023/08/26 10:15:32;;;;;;;1.58;0.63;;;21.90;57.30;;;;;;5012106;28;20085;-46
2023/08/26 10:18:24;;;;;;;1.65;0.80;;;22.00;57.30;;;;;;5017518;28;20038;-46
2023/08/26 10:20:57;;;;;;;1.58;0.47;;;22.10;56.90;;;;;;5021658;28;20037;-47
2023/08/26 10:23:25;;;;;;;1.13;0.80;;;22.20;56.60;;;;;;5022936;28;20448;-46
2023/08/26 10:25:52;;;;;;;0.63;0.50;;;22.30;55.60;;;;;;5014153;28;20109;-49
2023/08/26 10:28:20;;;;;;;0.95;0.70;;;22.40;55.40;;;;;;5010226;28;20104;-51
2023/08/26 10:30:47;;;;;;;2.60;1.02;;;22.60;55.90;;;;;;5013453;28;20091;-47
2023/08/26 10:33:18;;;;;;;0.80;0.50;;;22.70;54.60;;;;;;5021690;28;20120;-48
2023/08/26 10:35:57;;;;;;;1.95;0.70;;;22.80;54.30;;;;;;5004405;28;20084;-51
2023/08/26 10:38:24;;;;;;;0.93;0.75;;;22.90;53.70;;;;;;5010008;28;20069;-48
2023/08/26 10:41:07;;;;;;;3.08;1.00;;;23.10;54.70;;;;;;5010466;28;20634;-51
2023/08/26 10:43:34;;;;;;;1.33;0.70;;;23.20;53.30;;;;;;5013550;28;20107;-49
2023/08/26 10:46:01;;;;;;;0.85;0.60;;;23.30;53.50;;;;;;5017107;28;20125;-47
2023/08/26 10:48:28;;;;;;;0.88;0.55;;;23.40;53.40;;;;;;5013566;28;20048;-50
2023/08/26 10:50:59;;;;;;;1.02;0.50;;;23.50;53.70;;;;;;5019696;28;20045;-51
2023/08/26 10:53:27;;;;;;;0.88;0.75;;;23.60;54.10;;;;;;5019833;28;20038;-51
2023/08/26 10:56:12;;;;;;;1.30;0.40;;;23.70;53.50;;;;;;5008362;28;20052;-51
2023/08/26 10:58:49;;;;;;;0.82;0.80;;;23.70;51.80;;;;;;5010060;28;20042;-49
2023/08/26 11:01:16;;;;;;;3.33;0.80;;;23.70;51.70;;;;;;5009745;28;20038;-50
2023/08/26 11:03:48;;;;;;;1.10;0.70;;;23.70;52.10;;;;;;5022336;28;20060;-51
2023/08/26 11:06:23;;;;;;;1.90;0.50;;;23.70;52.60;;;;;;5007913;28;20077;-50
2023/08/26 11:08:57;;;;;;;2.22;1.17;;;23.70;52.30;;;;;;5012557;28;20085;-48
2023/08/26 11:11:25;;;;;;;4.13;0.77;;;23.80;52.30;;;;;;5014561;28;20042;-51
2023/08/26 11:13:51;;;;;;;0.85;0.75;;;23.80;52.50;;;;;;5014170;28;20705;-51
2023/08/26 11:16:20;;;;;;;2.60;0.73;;;23.80;53.20;;;;;;5004913;28;20129;-50
2023/08/26 11:18:51;;;;;;;0.90;0.80;;;23.90;52.80;;;;;;5012493;28;20095;-50
2023/08/26 11:21:18;;;;;;;0.63;0.50;;;24.00;52.10;;;;;;5010606;28;20057;-48
2023/08/26 11:23:47;;;;;;;2.00;0.73;;;24.10;52.00;;;;;;5013895;28;20056;-50
2023/08/26 11:26:20;;;;;;;1.15;0.40;;;24.20;51.10;;;;;;5006751;28;20052;-48
2023/08/26 11:28:48;;;;;;;1.75;0.60;;;24.40;50.70;;;;;;5008349;28;20129;-49
2023/08/26 11:31:16;;;;;;;1.48;0.60;;;24.50;51.00;;;;;;5013052;28;20088;-48
2023/08/26 11:33:43;;;;;;;2.85;0.68;;;24.50;51.50;;;;;;5006306;28;20492;-49
2023/08/26 11:36:10;;;;;;;0.55;0.55;;;24.70;50.80;;;;;;5011077;28;20038;-51
2023/08/26 11:38:37;;;;;;;0.93;0.47;;;24.80;50.30;;;;;;5008854;28;20530;-50
2023/08/26 11:41:09;;;;;;;0.40;0.40;;;24.90;50.10;;;;;;5016503;28;20044;-51
2023/08/26 11:43:36;;;;;;;2.00;0.70;;;25.00;50.10;;;;;;5019121;28;20073;-51
2023/08/26 11:46:05;;;;;;;0.93;0.60;;;25.10;50.80;;;;;;4995825;28;20057;-47
2023/08/26 11:48:36;;;;;;;0.77;0.57;;;25.20;50.10;;;;;;5014125;28;20042;-49
2023/08/26 11:51:03;;;;;;;0.45;0.32;;;25.30;49.50;;;;;;5018363;28;20133;-47
2023/08/26 11:53:31;;;;;;;1.60;0.82;;;25.40;49.50;;;;;;5019229;28;20069;-49
2023/08/26 11:55:58;;;;;;;2.65;1.10;;;25.40;48.50;;;;;;5017854;28;20041;-50
2023/08/26 11:58:26;;;;;;;1.27;1.10;;;25.40;48.50;;;;;;5011675;28;20073;-51
2023/08/26 12:00:55;;;;;;;1.75;0.60;;;25.40;49.00;;;;;;5013902;28;20050;-50
2023/08/26 12:03:23;;;;;;;1.38;0.60;;;25.40;48.40;;;;;;5021490;28;20052;-50
2023/08/26 12:05:52;;;;;;;2.10;0.93;;;25.40;48.40;;;;;;5023254;28;20051;-51
2023/08/26 12:08:21;;;;;;;1.83;0.73;;;25.40;48.00;;;;;;5009159;28;20088;-52
2023/08/26 12:10:52;;;;;;;1.27;1.10;;;25.40;48.40;;;;;;5009368;28;20042;-48
2023/08/26 12:13:19;;;;;;;0.97;0.50;;;25.40;48.40;;;;;;5020489;28;20042;-50
2023/08/26 12:15:47;;;;;;;0.60;0.40;;;25.40;48.90;;;;;;5019537;28;20038;-50
2023/08/26 12:18:14;;;;;;;0.93;0.57;;;25.40;49.40;;;;;;5012800;28;20046;-49
2023/08/26 12:20:46;;;;;;;1.58;0.40;;;25.40;49.20;;;;;;5019549;28;20060;-51
2023/08/26 12:23:16;;;;;;;;;;;25.50;48.70;;;;;;5019047;28;20057;-51
2023/08/26 12:25:44;;;;;;;2.53;0.93;;;25.60;49.90;;;;;;5018675;28;19968;-51
2023/08/26 12:28:15;;;;;;;2.15;0.50;;;25.70;48.90;;;;;;5013702;28;20057;-51
2023/08/26 12:30:43;;;;;;;1.15;0.80;;;25.80;48.30;;;;;;5011123;28;20045;-51
2023/08/26 12:33:10;;;;;;;2.55;0.95;;;25.80;47.60;;;;;;5017462;28;20112;-50
2023/08/26 12:35:51;;;;;;;1.20;0.63;;;25.80;47.50;;;;;;5013600;28;20455;-50
2023/08/26 12:38:17;;;;;;;1.35;0.82;;;25.80;47.50;;;;;;5023492;28;20046;-49
2023/08/26 12:40:50;;;;;;;0.60;0.50;;;25.80;47.80;;;;;;5013546;28;20052;-50
2023/08/26 12:43:20;;;;;;;0.85;0.50;;;25.70;47.40;;;;;;5006340;28;20042;-47
2023/08/26 12:45:48;;;;;;;2.15;0.68;;;25.70;47.20;;;;;;5018170;28;20472;-50
2023/08/26 12:48:16;;;;;;;0.40;0.30;;;25.70;46.90;;;;;;5010250;28;20528;-48
2023/08/26 12:51:03;;;;;;;0.75;0.65;;;25.70;46.70;;;;;;5013857;28;20037;-50
2023/08/26 12:53:29;;;;;;;0.77;0.55;;;25.70;47.10;;;;;;5013942;28;20112;-50
2023/08/26 12:55:58;;;;;;;1.80;0.57;;;25.60;46.70;;;;;;5021175;28;20109;-47